createdAt,value
2022-12-24T00:03:43.024Z,8.98
2022-12-24T00:08:46.850Z,8.38
2022-12-24T00:13:51.871Z,7.45
2022-12-24T00:18:55.549Z,9.05
2022-12-24T00:23:59.189Z,9.07
2022-12-24T00:29:04.680Z,9.73
2022-12-24T00:34:08.698Z,8.45
2022-12-24T00:39:12.925Z,9.00
2022-12-24T00:44:18.939Z,8.27
2022-12-24T00:49:23.251Z,9.95
2022-12-24T00:54:26.825Z,9.15
2022-12-24T00:59:31.774Z,9.15
2022-12-24T01:04:52.948Z,8.25
2022-12-24T01:09:56.617Z,8.20
2022-12-24T01:15:02.624Z,8.40
2022-12-24T01:20:12.578Z,7.88
2022-12-24T01:25:16.518Z,8.93
2022-12-24T01:30:21.769Z,8.98
2022-12-24T01:35:25.300Z,7.80
2022-12-24T01:40:46.631Z,8.25
2022-12-24T01:45:54.653Z,8.85
2022-12-24T01:51:05.547Z,9.73
2022-12-24T01:56:11.292Z,8.43
2022-12-24T02:01:16.710Z,8.23
2022-12-24T02:06:22.526Z,8.50
2022-12-24T02:11:26.270Z,10.07
2022-12-24T02:16:47.326Z,10.02
2022-12-24T02:21:59.677Z,9.35
2022-12-24T02:27:22.681Z,9.43
2022-12-24T02:32:42.465Z,7.72
2022-12-24T02:37:53.757Z,8.80
2022-12-24T02:43:05.027Z,8.20
2022-12-24T02:48:12.059Z,7.38
2022-12-24T02:53:15.658Z,9.03
2022-12-24T02:58:39.323Z,8.00
2022-12-24T03:04:09.863Z,7.88
2022-12-24T03:09:25.742Z,7.90
2022-12-24T03:14:30.652Z,9.00
2022-12-24T03:19:36.820Z,8.52
2022-12-24T03:24:40.772Z,7.72
2022-12-24T03:29:44.631Z,7.15
2022-12-24T03:34:49.612Z,6.07
2022-12-24T03:39:53.177Z,7.07
2022-12-24T03:44:56.735Z,12.40
2022-12-24T03:50:01.768Z,8.35
2022-12-24T03:55:06.606Z,8.52
2022-12-24T04:00:12.652Z,9.77
2022-12-24T04:05:21.252Z,11.45
2022-12-24T04:10:24.863Z,10.15
2022-12-24T04:15:28.477Z,9.40
2022-12-24T04:20:33.397Z,10.00
2022-12-24T04:25:38.646Z,8.95
2022-12-24T04:30:43.374Z,9.90
2022-12-24T04:35:48.314Z,8.18
2022-12-24T04:41:00.867Z,9.27
2022-12-24T04:46:09.806Z,8.82
2022-12-24T04:51:17.239Z,9.43
2022-12-24T04:56:24.695Z,10.65
2022-12-24T05:01:33.628Z,9.68
2022-12-24T05:06:38.928Z,9.80
2022-12-24T05:11:42.605Z,9.82
2022-12-24T05:16:46.233Z,8.65
2022-12-24T05:22:11.222Z,9.15
2022-12-24T05:27:14.821Z,8.00
2022-12-24T05:32:18.411Z,8.15
2022-12-24T05:37:23.417Z,7.55
2022-12-24T05:42:27.017Z,8.15
2022-12-24T05:47:31.368Z,8.63
2022-12-24T05:52:36.404Z,7.97
2022-12-24T05:57:42.061Z,9.10
2022-12-24T06:02:45.948Z,8.75
2022-12-24T06:07:51.194Z,9.20
2022-12-24T06:12:54.800Z,8.70
2022-12-24T06:17:58.356Z,7.78
2022-12-24T06:23:03.422Z,7.25
2022-12-24T06:28:07.211Z,7.38
2022-12-24T06:33:10.843Z,8.75
2022-12-24T06:38:16.842Z,7.40
2022-12-24T06:43:20.408Z,6.72
2022-12-24T06:48:24.151Z,8.40
2022-12-24T06:53:29.079Z,6.68
2022-12-24T06:58:33.043Z,8.65
2022-12-24T07:03:37.154Z,7.65
2022-12-24T07:08:42.195Z,10.43
2022-12-24T07:13:46.088Z,8.75
2022-12-24T07:18:49.790Z,7.30
2022-12-24T07:23:54.736Z,5.75
2022-12-24T07:28:58.421Z,9.02
2022-12-24T07:34:01.984Z,8.20
2022-12-24T07:39:07.108Z,7.85
2022-12-24T07:44:13.624Z,7.22
2022-12-24T07:49:17.266Z,6.90
2022-12-24T07:54:22.309Z,8.70
2022-12-24T07:59:26.247Z,9.32
2022-12-24T08:04:33.677Z,8.93
2022-12-24T08:09:44.292Z,23.30
2022-12-24T08:14:48.009Z,10.52
2022-12-24T08:19:51.768Z,16.80
2022-12-24T08:24:56.849Z,14.93
2022-12-24T08:30:00.523Z,16.92
2022-12-24T08:35:05.161Z,25.60
2022-12-24T08:40:12.766Z,33.10
2022-12-24T08:45:16.635Z,24.58
2022-12-24T08:50:20.626Z,27.67
2022-12-24T08:55:25.675Z,19.42
2022-12-24T09:00:29.975Z,22.35
2022-12-24T09:05:34.009Z,18.42
2022-12-24T09:10:39.156Z,17.48
2022-12-24T09:15:43.006Z,16.92
2022-12-24T09:20:47.138Z,18.80
2022-12-24T09:25:52.884Z,20.05
2022-12-24T09:31:06.942Z,13.35
2022-12-24T09:36:11.911Z,17.10
2022-12-24T09:41:32.086Z,17.25
2022-12-24T09:46:42.407Z,13.98
2022-12-24T09:51:51.219Z,15.00
2022-12-24T09:56:59.015Z,12.25
2022-12-24T10:07:26.158Z,11.02
2022-12-24T10:12:49.156Z,12.00
2022-12-24T10:18:14.289Z,14.40
2022-12-24T10:23:26.224Z,11.70
2022-12-24T10:28:42.125Z,9.93
2022-12-24T10:33:52.756Z,12.98
2022-12-24T10:38:56.983Z,15.45
2022-12-24T10:44:02.704Z,14.13
2022-12-24T10:49:09.571Z,13.98
2022-12-24T10:54:22.564Z,15.57
2022-12-24T10:59:38.376Z,16.80
2022-12-24T11:04:51.279Z,18.15
2022-12-24T11:10:01.132Z,17.00
2022-12-24T11:15:15.967Z,38.13
2022-12-24T11:20:28.361Z,28.98
2022-12-24T11:25:34.724Z,37.97
2022-12-24T11:30:40.464Z,27.95
2022-12-24T11:35:51.726Z,28.08
2022-12-24T11:41:09.253Z,28.20
2022-12-24T11:46:24.077Z,27.25
2022-12-24T11:51:29.163Z,29.13
2022-12-24T11:56:41.841Z,22.45
2022-12-24T12:01:55.875Z,25.23
2022-12-24T12:07:14.333Z,24.63
2022-12-24T12:12:25.622Z,20.30
2022-12-24T12:17:37.411Z,18.55
2022-12-24T12:22:51.880Z,19.10
2022-12-24T12:27:58.382Z,19.48
2022-12-24T12:33:14.944Z,20.70
2022-12-24T12:38:25.494Z,19.27
2022-12-24T12:43:56.759Z,16.30
2022-12-24T12:49:22.913Z,17.05
2022-12-24T12:54:52.467Z,16.30
2022-12-24T13:00:02.416Z,13.80
2022-12-24T13:06:00.051Z,16.55
2022-12-24T13:11:41.122Z,15.85
2022-12-24T13:17:21.260Z,15.30
2022-12-24T13:22:26.603Z,11.27
2022-12-24T13:27:32.650Z,12.95
2022-12-24T13:32:52.839Z,12.85
2022-12-24T13:38:42.308Z,12.98
2022-12-24T13:44:04.782Z,10.35
2022-12-24T13:49:14.317Z,12.77
2022-12-24T13:54:25.704Z,12.68
2022-12-24T13:59:38.919Z,13.20
2022-12-24T14:04:43.031Z,12.05
2022-12-24T14:09:51.957Z,11.80
2022-12-24T14:14:55.456Z,15.77
2022-12-24T14:20:02.391Z,17.88
2022-12-24T14:25:19.992Z,14.17
2022-12-24T14:30:26.087Z,13.98
2022-12-24T14:35:36.563Z,13.13
2022-12-24T14:41:01.763Z,11.40
2022-12-24T14:46:17.278Z,11.60
2022-12-24T14:51:32.359Z,9.18
2022-12-24T14:56:37.490Z,12.40
2022-12-24T15:01:41.398Z,11.50
2022-12-24T15:06:50.540Z,8.73
2022-12-24T15:12:03.511Z,10.35
2022-12-24T15:17:09.495Z,9.48
2022-12-24T15:22:25.212Z,11.20
2022-12-24T15:27:40.487Z,9.02
2022-12-24T15:32:44.275Z,9.88
2022-12-24T15:37:48.112Z,12.02
2022-12-24T15:42:54.033Z,7.97
2022-12-24T15:48:02.071Z,9.60
2022-12-24T15:53:20.700Z,11.50
2022-12-24T15:58:31.920Z,8.18
2022-12-24T16:03:37.548Z,7.72
2022-12-24T16:08:42.578Z,8.10
2022-12-24T16:14:04.179Z,9.07
2022-12-24T16:19:18.092Z,7.70
2022-12-24T16:24:26.371Z,8.38
2022-12-24T16:29:31.720Z,8.23
2022-12-24T16:34:35.580Z,7.00
2022-12-24T16:39:39.252Z,7.82
2022-12-24T16:44:45.814Z,7.65
2022-12-24T16:49:49.816Z,7.65
2022-12-24T16:54:54.043Z,7.13
2022-12-24T16:59:59.750Z,7.45
2022-12-24T17:05:03.302Z,7.70
2022-12-24T17:10:11.629Z,6.45
2022-12-24T17:15:16.666Z,7.03
2022-12-24T17:20:24.324Z,7.20
2022-12-24T17:25:28.337Z,6.00
2022-12-24T17:30:33.490Z,7.35
2022-12-24T17:35:41.604Z,6.60
2022-12-24T17:40:45.581Z,7.15
2022-12-24T17:45:50.728Z,6.93
2022-12-24T17:50:54.413Z,5.95
2022-12-24T17:55:58.183Z,7.03
2022-12-24T18:01:03.353Z,6.47
2022-12-24T18:06:10.695Z,5.72
2022-12-24T18:11:17.201Z,5.43
2022-12-24T18:16:28.025Z,4.70
2022-12-24T18:21:34.231Z,4.63
2022-12-24T18:26:38.004Z,4.97
2022-12-24T18:31:43.581Z,6.35
2022-12-24T18:36:54.621Z,4.88
2022-12-24T18:41:58.922Z,4.78
2022-12-24T18:47:04.276Z,4.28
2022-12-24T18:52:10.450Z,4.55
2022-12-24T18:57:14.517Z,4.90
2022-12-24T19:02:19.819Z,5.15
2022-12-24T19:07:23.627Z,6.28
2022-12-24T19:12:27.291Z,3.78
2022-12-24T19:17:32.475Z,4.95
2022-12-24T19:22:36.370Z,5.05
2022-12-24T19:27:40.085Z,5.18
2022-12-24T19:32:45.303Z,3.92
2022-12-24T19:37:48.915Z,4.80
2022-12-24T19:42:52.842Z,5.32
2022-12-24T19:47:57.976Z,4.22
2022-12-24T19:53:02.143Z,4.90
2022-12-24T19:58:05.949Z,4.47
2022-12-24T20:03:11.342Z,4.60
2022-12-24T20:08:15.165Z,5.65
2022-12-24T20:13:18.920Z,4.90
2022-12-24T20:18:23.995Z,4.78
2022-12-24T20:23:27.788Z,5.57
2022-12-24T20:28:35.581Z,5.15
2022-12-24T20:38:45.426Z,6.45
2022-12-24T20:43:49.854Z,5.70
2022-12-24T20:48:56.895Z,5.30
2022-12-24T20:54:02.559Z,6.27
2022-12-24T20:59:06.605Z,5.18
2022-12-24T21:04:12.717Z,5.00
2022-12-24T21:09:16.617Z,6.07
2022-12-24T21:14:26.268Z,4.70
2022-12-24T21:19:31.409Z,5.38
2022-12-24T21:24:35.200Z,5.35
2022-12-24T21:29:39.127Z,5.95
2022-12-24T21:34:44.240Z,5.18
2022-12-24T21:39:48.283Z,5.78
2022-12-24T21:44:52.133Z,5.28
2022-12-24T21:50:14.955Z,5.70
2022-12-24T21:55:18.987Z,4.47
2022-12-24T22:00:23.254Z,5.63
2022-12-24T22:05:29.557Z,5.20
2022-12-24T22:10:51.379Z,5.38
2022-12-24T22:15:56.031Z,5.03
2022-12-24T22:21:04.039Z,4.78
2022-12-24T22:26:13.067Z,5.95
2022-12-24T22:31:21.493Z,5.25
2022-12-24T22:36:26.637Z,6.90
2022-12-24T22:41:30.350Z,6.18
2022-12-24T22:46:35.575Z,7.43
2022-12-24T22:51:40.692Z,5.78
2022-12-24T22:56:44.508Z,6.97
2022-12-24T23:01:49.751Z,6.15
2022-12-24T23:06:54.907Z,6.10
2022-12-24T23:11:58.632Z,6.70
2022-12-24T23:17:02.841Z,6.22
2022-12-24T23:22:08.684Z,6.35
2022-12-24T23:27:12.870Z,6.20
2022-12-24T23:32:16.480Z,8.88
2022-12-24T23:37:21.524Z,8.52
2022-12-24T23:42:25.161Z,9.63
2022-12-24T23:47:28.804Z,9.95
2022-12-24T23:52:33.827Z,8.82
2022-12-24T23:57:37.426Z,8.98
